sensor_id;sensor_type;location;lat;lon;timestamp;pressure;altitude;pressure_sealevel;temperature;humidity
61880;BME280;47817;52.798;27.544;2023-02-16T00:01:24;1033.8;;;0.6;82
61880;BME280;47817;52.798;27.544;2023-02-16T00:06:57;1033.7;;;0.6;82.1
61880;BME280;47817;52.798;27.544;2023-02-16T00:11:11;1033.7;;;0.7;82.6
61880;BME280;47817;52.798;27.544;2023-02-16T00:16:36;1033.6;;;0.7;82.7
61880;BME280;47817;52.798;27.544;2023-02-16T00:22:00;1033.6;;;0.6;83.1
61880;BME280;47817;52.798;27.544;2023-02-16T00:26:56;1033.5;;;0.5;82.9
61880;BME280;47817;52.798;27.544;2023-02-16T00:31:13;1033.5;;;0.4;82.9
61880;BME280;47817;52.798;27.544;2023-02-16T00:37:00;1033.5;;;0.2;83.1
61880;BME280;47817;52.798;27.544;2023-02-16T00:41:35;1033.5;;;0.1;83.5
61880;BME280;47817;52.798;27.544;2023-02-16T00:46:23;1033.5;;;0;83.2
61880;BME280;47817;52.798;27.544;2023-02-16T00:51:33;1033.5;;;-0.1;82.8
61880;BME280;47817;52.798;27.544;2023-02-16T00:56:35;1033.4;;;-0.1;83.2
61880;BME280;47817;52.798;27.544;2023-02-16T01:01:20;1033.3;;;-0.1;83.7
61880;BME280;47817;52.798;27.544;2023-02-16T01:06:09;1033.3;;;0;84.3
61880;BME280;47817;52.798;27.544;2023-02-16T01:11:37;1033.2;;;0.2;84.4
61880;BME280;47817;52.798;27.544;2023-02-16T01:16:47;1033.1;;;0.3;84.4
61880;BME280;47817;52.798;27.544;2023-02-16T01:21:47;1033.1;;;0.4;84.4
61880;BME280;47817;52.798;27.544;2023-02-16T01:26:48;1033.1;;;0.5;84.1
61880;BME280;47817;52.798;27.544;2023-02-16T01:31:57;1033.1;;;0.4;83.8
61880;BME280;47817;52.798;27.544;2023-02-16T01:36:36;1033.1;;;0.3;84.5
61880;BME280;47817;52.798;27.544;2023-02-16T01:41:49;1033;;;0.3;84.3
61880;BME280;47817;52.798;27.544;2023-02-16T01:46:24;1032.9;;;0.2;84.3
61880;BME280;47817;52.798;27.544;2023-02-16T01:51:11;1032.9;;;0.2;84.4
61880;BME280;47817;52.798;27.544;2023-02-16T01:56:38;1032.8;;;0.3;84
61880;BME280;47817;52.798;27.544;2023-02-16T02:01:57;1032.7;;;0.2;83.7
61880;BME280;47817;52.798;27.544;2023-02-16T02:06:26;1032.6;;;0.2;83.7
61880;BME280;47817;52.798;27.544;2023-02-16T02:11:56;1032.6;;;0.2;83.5
61880;BME280;47817;52.798;27.544;2023-02-16T02:16:51;1032.5;;;0.1;83.6
61880;BME280;47817;52.798;27.544;2023-02-16T02:22:08;1032.6;;;0.1;83.8
61880;BME280;47817;52.798;27.544;2023-02-16T02:31:45;1032.5;;;0;83.8
61880;BME280;47817;52.798;27.544;2023-02-16T02:36:14;1032.5;;;0;83.8
61880;BME280;47817;52.798;27.544;2023-02-16T02:42:00;1032.4;;;-0.1;83.8
61880;BME280;47817;52.798;27.544;2023-02-16T02:46:24;1032.4;;;-0.1;83.6
61880;BME280;47817;52.798;27.544;2023-02-16T02:51:59;1032.3;;;-0.2;83.6
61880;BME280;47817;52.798;27.544;2023-02-16T02:56:58;1032.3;;;-0.2;83.6
61880;BME280;47817;52.798;27.544;2023-02-16T03:01:23;1032.3;;;-0.2;83.5
61880;BME280;47817;52.798;27.544;2023-02-16T03:06:44;1032.2;;;-0.1;83.4
61880;BME280;47817;52.798;27.544;2023-02-16T03:11:25;1032.1;;;-0.1;83.3
61880;BME280;47817;52.798;27.544;2023-02-16T03:16:48;1032.1;;;0;83.2
61880;BME280;47817;52.798;27.544;2023-02-16T03:21:10;1032;;;0.1;83.3
61880;BME280;47817;52.798;27.544;2023-02-16T03:26:45;1032;;;0.2;83.1
61880;BME280;47817;52.798;27.544;2023-02-16T03:31:48;1031.8;;;0.2;83
61880;BME280;47817;52.798;27.544;2023-02-16T03:36:56;1031.8;;;0.3;82.9
61880;BME280;47817;52.798;27.544;2023-02-16T03:41:09;1031.8;;;0.3;82.9
61880;BME280;47817;52.798;27.544;2023-02-16T03:46:55;1031.7;;;0.4;82.9
61880;BME280;47817;52.798;27.544;2023-02-16T03:51:57;1031.7;;;0.4;82.8
61880;BME280;47817;52.798;27.544;2023-02-16T03:56:45;1031.6;;;0.4;83
61880;BME280;47817;52.798;27.544;2023-02-16T04:01:09;1031.5;;;0.5;83.1
61880;BME280;47817;52.798;27.544;2023-02-16T04:06:37;1031.4;;;0.5;83.2
61880;BME280;47817;52.798;27.544;2023-02-16T04:11:21;1031.4;;;0.6;83.1
61880;BME280;47817;52.798;27.544;2023-02-16T04:16:09;1031.3;;;0.7;83.1
61880;BME280;47817;52.798;27.544;2023-02-16T04:21:45;1031.2;;;0.7;83.4
61880;BME280;47817;52.798;27.544;2023-02-16T04:26:09;1031.2;;;0.8;83.4
61880;BME280;47817;52.798;27.544;2023-02-16T04:31:39;1031.1;;;0.8;83.5
61880;BME280;47817;52.798;27.544;2023-02-16T04:36:09;1031.1;;;0.8;83.9
61880;BME280;47817;52.798;27.544;2023-02-16T04:41:59;1031.1;;;0.8;84
61880;BME280;47817;52.798;27.544;2023-02-16T04:46:45;1031;;;0.8;83.8
61880;BME280;47817;52.798;27.544;2023-02-16T04:51:45;1031;;;0.8;83.9
61880;BME280;47817;52.798;27.544;2023-02-16T04:56:55;1030.9;;;0.8;84
61880;BME280;47817;52.798;27.544;2023-02-16T05:01:22;1030.9;;;0.7;84.5
61880;BME280;47817;52.798;27.544;2023-02-16T05:06:45;1030.8;;;0.7;84.6
61880;BME280;47817;52.798;27.544;2023-02-16T05:11:23;1030.8;;;0.7;84.9
61880;BME280;47817;52.798;27.544;2023-02-16T05:16:19;1030.7;;;0.7;85.2
61880;BME280;47817;52.798;27.544;2023-02-16T05:21:31;1030.7;;;0.7;85.3
61880;BME280;47817;52.798;27.544;2023-02-16T05:26:55;1030.7;;;0.7;85.2
61880;BME280;47817;52.798;27.544;2023-02-16T05:31:33;1030.7;;;0.7;85.3
61880;BME280;47817;52.798;27.544;2023-02-16T05:36:43;1030.7;;;0.7;85.4
61880;BME280;47817;52.798;27.544;2023-02-16T05:41:19;1030.6;;;0.8;85
61880;BME280;47817;52.798;27.544;2023-02-16T05:46:55;1030.6;;;0.9;84.8
61880;BME280;47817;52.798;27.544;2023-02-16T05:51:34;1030.5;;;0.9;84.4
61880;BME280;47817;52.798;27.544;2023-02-16T05:56:33;1030.5;;;1;84.1
61880;BME280;47817;52.798;27.544;2023-02-16T06:01:55;1030.5;;;1.1;84.1
61880;BME280;47817;52.798;27.544;2023-02-16T06:06:21;1030.5;;;1.2;84.3
61880;BME280;47817;52.798;27.544;2023-02-16T06:11:44;1030.4;;;1.4;84
61880;BME280;47817;52.798;27.544;2023-02-16T06:16:55;1030.4;;;1.4;83.8
61880;BME280;47817;52.798;27.544;2023-02-16T06:21:43;1030.3;;;1.5;83.7
61880;BME280;47817;52.798;27.544;2023-02-16T06:26:31;1030.3;;;1.6;83.3
61880;BME280;47817;52.798;27.544;2023-02-16T06:31:55;1030.3;;;1.7;83.2
61880;BME280;47817;52.798;27.544;2023-02-16T06:36:32;1030.3;;;1.8;82.8
61880;BME280;47817;52.798;27.544;2023-02-16T06:41:21;1030.2;;;2;82.3
61880;BME280;47817;52.798;27.544;2023-02-16T06:46:09;1030.2;;;2.2;81.7
61880;BME280;47817;52.798;27.544;2023-02-16T06:51:31;1030.1;;;2.4;81.1
61880;BME280;47817;52.798;27.544;2023-02-16T06:56:31;1030.1;;;2.6;80.6
61880;BME280;47817;52.798;27.544;2023-02-16T07:01:09;1030;;;2.8;80.2
61880;BME280;47817;52.798;27.544;2023-02-16T07:06:29;1030;;;2.9;79.7
61880;BME280;47817;52.798;27.544;2023-02-16T07:11:57;1029.9;;;2.9;79.5
61880;BME280;47817;52.798;27.544;2023-02-16T07:16:35;1029.8;;;2.8;79.4
61880;BME280;47817;52.798;27.544;2023-02-16T07:21:21;1029.8;;;2.8;79.3
61880;BME280;47817;52.798;27.544;2023-02-16T07:26:55;1029.7;;;2.8;79.3
61880;BME280;47817;52.798;27.544;2023-02-16T07:31:31;1029.7;;;2.8;79.2
61880;BME280;47817;52.798;27.544;2023-02-16T07:36:33;1029.6;;;2.8;79
61880;BME280;47817;52.798;27.544;2023-02-16T07:41:23;1029.6;;;2.7;78.9
61880;BME280;47817;52.798;27.544;2023-02-16T07:46:19;1029.5;;;2.7;78.9
61880;BME280;47817;52.798;27.544;2023-02-16T07:51:09;1029.5;;;2.8;79
61880;BME280;47817;52.798;27.544;2023-02-16T07:56:24;1029.4;;;2.8;78.9
61880;BME280;47817;52.798;27.544;2023-02-16T08:01:10;1029.3;;;2.9;78.7
61880;BME280;47817;52.798;27.544;2023-02-16T08:06:55;1029.2;;;3;78.4
61880;BME280;47817;52.798;27.544;2023-02-16T08:11:20;1029.2;;;3.1;78.2
61880;BME280;47817;52.798;27.544;2023-02-16T08:16:31;1029.1;;;3.2;78.2
61880;BME280;47817;52.798;27.544;2023-02-16T08:21:56;1029;;;3.4;77.9
61880;BME280;47817;52.798;27.544;2023-02-16T08:26:55;1028.9;;;3.7;77.2
61880;BME280;47817;52.798;27.544;2023-02-16T08:31:09;1028.8;;;4;76.6
61880;BME280;47817;52.798;27.544;2023-02-16T08:36:15;1028.8;;;4.4;75.9
61880;BME280;47817;52.798;27.544;2023-02-16T08:41:26;1028.7;;;4.8;74.9
61880;BME280;47817;52.798;27.544;2023-02-16T08:46:09;1028.6;;;5.3;73.7
61880;BME280;47817;52.798;27.544;2023-02-16T08:51:54;1028.6;;;5.4;73.5
61880;BME280;47817;52.798;27.544;2023-02-16T08:56:19;1028.6;;;5.2;73.7
61880;BME280;47817;52.798;27.544;2023-02-16T09:01:53;1028.5;;;5.4;73.3
61880;BME280;47817;52.798;27.544;2023-02-16T09:06:10;1028.5;;;5.6;73
61880;BME280;47817;52.798;27.544;2023-02-16T09:11:53;1028.4;;;5.9;72.4
61880;BME280;47817;52.798;27.544;2023-02-16T09:16:22;1028.3;;;6.1;71.8
61880;BME280;47817;52.798;27.544;2023-02-16T09:21:42;1028.2;;;6.1;71.1
61880;BME280;47817;52.798;27.544;2023-02-16T09:26:21;1028.1;;;6.3;70.9
61880;BME280;47817;52.798;27.544;2023-02-16T09:31:53;1028;;;6.3;70.1
61880;BME280;47817;52.798;27.544;2023-02-16T09:36:10;1028;;;6.4;69.5
61880;BME280;47817;52.798;27.544;2023-02-16T09:41:54;1027.9;;;6.4;68.7
61880;BME280;47817;52.798;27.544;2023-02-16T09:46:53;1027.8;;;6.5;68.1
61880;BME280;47817;52.798;27.544;2023-02-16T09:51:43;1027.7;;;6.7;67
61880;BME280;47817;52.798;27.544;2023-02-16T09:56:43;1027.6;;;6.8;66.3
61880;BME280;47817;52.798;27.544;2023-02-16T10:01:23;1027.5;;;6.8;65.7
61880;BME280;47817;52.798;27.544;2023-02-16T10:06:47;1027.4;;;7.1;65
61880;BME280;47817;52.798;27.544;2023-02-16T10:11:23;1027.2;;;7.4;64.3
61880;BME280;47817;52.798;27.544;2023-02-16T10:16:43;1027.1;;;7.6;63.3
61880;BME280;47817;52.798;27.544;2023-02-16T10:21:21;1027.1;;;7.8;62.5
61880;BME280;47817;52.798;27.544;2023-02-16T10:26:21;1027;;;8.1;61.8
61880;BME280;47817;52.798;27.544;2023-02-16T10:31:11;1026.9;;;8.3;61.8
61880;BME280;47817;52.798;27.544;2023-02-16T10:36:58;1026.8;;;8.4;60.6
61880;BME280;47817;52.798;27.544;2023-02-16T10:41:43;1026.7;;;8.5;59.4
61880;BME280;47817;52.798;27.544;2023-02-16T10:46:44;1026.6;;;8.5;58.7
61880;BME280;47817;52.798;27.544;2023-02-16T10:51:55;1026.6;;;8.8;58
61880;BME280;47817;52.798;27.544;2023-02-16T10:56:35;1026.5;;;8.7;57.6
61880;BME280;47817;52.798;27.544;2023-02-16T11:01:26;1026.5;;;8.8;57.3
61880;BME280;47817;52.798;27.544;2023-02-16T11:06:20;1026.4;;;9.2;57.1
61880;BME280;47817;52.798;27.544;2023-02-16T11:11:45;1026.4;;;9.7;56.5
61880;BME280;47817;52.798;27.544;2023-02-16T11:16:22;1026.3;;;10;56.3
61880;BME280;47817;52.798;27.544;2023-02-16T11:21:54;1026.3;;;10.3;55.7
61880;BME280;47817;52.798;27.544;2023-02-16T11:26:20;1026.2;;;10.5;55.1
61880;BME280;47817;52.798;27.544;2023-02-16T11:31:45;1026.1;;;10.7;54.1
61880;BME280;47817;52.798;27.544;2023-02-16T11:36:42;1026;;;10.8;53.7
61880;BME280;47817;52.798;27.544;2023-02-16T11:41:52;1026;;;10.7;53.4
61880;BME280;47817;52.798;27.544;2023-02-16T11:46:22;1025.9;;;10.8;53
61880;BME280;47817;52.798;27.544;2023-02-16T11:51:35;1025.8;;;11.1;52.5
61880;BME280;47817;52.798;27.544;2023-02-16T11:57:03;1025.7;;;11.3;52.1
61880;BME280;47817;52.798;27.544;2023-02-16T12:01:19;1025.7;;;11.5;51.6
61880;BME280;47817;52.798;27.544;2023-02-16T12:06:48;1025.7;;;11.4;51.4
61880;BME280;47817;52.798;27.544;2023-02-16T12:11:57;1025.6;;;11.5;50.6
61880;BME280;47817;52.798;27.544;2023-02-16T12:16:59;1025.5;;;11.8;50.3
61880;BME280;47817;52.798;27.544;2023-02-16T12:21:11;1025.4;;;11.8;50.1
61880;BME280;47817;52.798;27.544;2023-02-16T12:26:58;1025.3;;;11.5;50.1
61880;BME280;47817;52.798;27.544;2023-02-16T12:31:25;1025.2;;;11.7;50.2
61880;BME280;47817;52.798;27.544;2023-02-16T12:36:17;1025.1;;;11.8;49.9
61880;BME280;47817;52.798;27.544;2023-02-16T12:41:33;1025.1;;;11.7;50
61880;BME280;47817;52.798;27.544;2023-02-16T12:46:11;1025.1;;;11.6;49.8
61880;BME280;47817;52.798;27.544;2023-02-16T12:51:11;1025;;;11.7;49.7
61880;BME280;47817;52.798;27.544;2023-02-16T12:56:11;1024.9;;;11.7;49.3
61880;BME280;47817;52.798;27.544;2023-02-16T13:01:22;1024.9;;;11.7;49.1
61880;BME280;47817;52.798;27.544;2023-02-16T13:06:55;1024.8;;;11.6;48.9
61880;BME280;47817;52.798;27.544;2023-02-16T13:11:37;1024.7;;;11.5;49.4
61880;BME280;47817;52.798;27.544;2023-02-16T13:16:23;1024.7;;;11.5;49.5
61880;BME280;47817;52.798;27.544;2023-02-16T13:21:52;1024.6;;;11.4;49.6
61880;BME280;47817;52.798;27.544;2023-02-16T13:26:47;1024.6;;;11.3;49.3
61880;BME280;47817;52.798;27.544;2023-02-16T13:31:12;1024.5;;;11.3;49.4
61880;BME280;47817;52.798;27.544;2023-02-16T13:36:14;1024.4;;;11.1;49.2
61880;BME280;47817;52.798;27.544;2023-02-16T13:41:14;1024.4;;;10.9;49.3
61880;BME280;47817;52.798;27.544;2023-02-16T13:46:11;1024.3;;;10.9;49.2
61880;BME280;47817;52.798;27.544;2023-02-16T13:51:56;1024.3;;;10.8;49.5
61880;BME280;47817;52.798;27.544;2023-02-16T13:56:34;1024.2;;;10.6;49.8
61880;BME280;47817;52.798;27.544;2023-02-16T14:01:44;1024.2;;;10.5;50.1
61880;BME280;47817;52.798;27.544;2023-02-16T14:06:36;1024.2;;;10.3;50.4
61880;BME280;47817;52.798;27.544;2023-02-16T14:11:58;1024.2;;;10.2;50.8
61880;BME280;47817;52.798;27.544;2023-02-16T14:16:10;1024.2;;;9.8;51.2
61880;BME280;47817;52.798;27.544;2023-02-16T14:21:42;1024.2;;;9.4;51.9
61880;BME280;47817;52.798;27.544;2023-02-16T14:26:21;1024.2;;;9.1;52.5
61880;BME280;47817;52.798;27.544;2023-02-16T14:31:46;1024.2;;;8.8;52.9
61880;BME280;47817;52.798;27.544;2023-02-16T14:36:12;1024.1;;;8.8;53.1
61880;BME280;47817;52.798;27.544;2023-02-16T14:42:05;1024.1;;;9.2;52.9
61880;BME280;47817;52.798;27.544;2023-02-16T14:46:57;1024;;;9.8;52
61880;BME280;47817;52.798;27.544;2023-02-16T14:51:47;1024;;;9.7;52
61880;BME280;47817;52.798;27.544;2023-02-16T14:56:39;1024;;;9.4;52.4
61880;BME280;47817;52.798;27.544;2023-02-16T15:01:37;1024;;;9.1;53
61880;BME280;47817;52.798;27.544;2023-02-16T15:06:37;1024;;;8.7;53.7
61880;BME280;47817;52.798;27.544;2023-02-16T15:11:19;1024;;;8.3;54.6
61880;BME280;47817;52.798;27.544;2023-02-16T15:16:40;1023.9;;;8;55.3
61880;BME280;47817;52.798;27.544;2023-02-16T15:21:22;1023.9;;;7.6;56
61880;BME280;47817;52.798;27.544;2023-02-16T15:26:51;1023.9;;;7.2;56.9
61880;BME280;47817;52.798;27.544;2023-02-16T15:31:32;1023.8;;;6.9;57.6
61880;BME280;47817;52.798;27.544;2023-02-16T15:36:55;1023.8;;;6.7;57.9
61880;BME280;47817;52.798;27.544;2023-02-16T15:41:44;1023.8;;;6.5;58.6
61880;BME280;47817;52.798;27.544;2023-02-16T15:46:43;1023.9;;;6.3;59.3
61880;BME280;47817;52.798;27.544;2023-02-16T15:51:58;1023.9;;;6.2;59.6
61880;BME280;47817;52.798;27.544;2023-02-16T15:56:54;1023.9;;;6.1;60.5
61880;BME280;47817;52.798;27.544;2023-02-16T16:01:45;1023.8;;;6.1;61
61880;BME280;47817;52.798;27.544;2023-02-16T16:06:33;1023.8;;;6.2;61.1
61880;BME280;47817;52.798;27.544;2023-02-16T16:11:39;1023.8;;;6.3;61
61880;BME280;47817;52.798;27.544;2023-02-16T16:16:21;1023.8;;;6.4;61
61880;BME280;47817;52.798;27.544;2023-02-16T16:21:45;1023.8;;;6.4;60.8
61880;BME280;47817;52.798;27.544;2023-02-16T16:26:17;1023.8;;;6.3;61.4
61880;BME280;47817;52.798;27.544;2023-02-16T16:31:55;1023.9;;;6;63.4
61880;BME280;47817;52.798;27.544;2023-02-16T16:36:45;1024;;;5.6;64
61880;BME280;47817;52.798;27.544;2023-02-16T16:41:46;1024;;;5.3;65.4
61880;BME280;47817;52.798;27.544;2023-02-16T16:47:06;1024;;;5;66.4
61880;BME280;47817;52.798;27.544;2023-02-16T16:51:10;1024;;;4.7;67.8
61880;BME280;47817;52.798;27.544;2023-02-16T16:56:36;1024;;;4.4;69.5
61880;BME280;47817;52.798;27.544;2023-02-16T17:01:10;1024.1;;;4.1;71.3
61880;BME280;47817;52.798;27.544;2023-02-16T17:06:45;1024.1;;;3.9;72.9
61880;BME280;47817;52.798;27.544;2023-02-16T17:11:10;1024.1;;;3.7;74
61880;BME280;47817;52.798;27.544;2023-02-16T17:16:57;1024.1;;;3.6;75.1
61880;BME280;47817;52.798;27.544;2023-02-16T17:21:21;1024.1;;;3.6;75.1
61880;BME280;47817;52.798;27.544;2023-02-16T17:26:35;1024.1;;;3.6;75.1
61880;BME280;47817;52.798;27.544;2023-02-16T17:31:43;1024;;;3.5;76.8
61880;BME280;47817;52.798;27.544;2023-02-16T17:36:56;1023.9;;;3.4;76.7
61880;BME280;47817;52.798;27.544;2023-02-16T17:41:12;1024;;;3.3;76.8
61880;BME280;47817;52.798;27.544;2023-02-16T17:46:31;1023.9;;;3.3;77
61880;BME280;47817;52.798;27.544;2023-02-16T17:51:53;1023.9;;;3.2;77.7
61880;BME280;47817;52.798;27.544;2023-02-16T17:56:10;1023.8;;;3.3;77.8
61880;BME280;47817;52.798;27.544;2023-02-16T18:01:26;1023.7;;;3.2;77.9
61880;BME280;47817;52.798;27.544;2023-02-16T18:06:56;1023.7;;;3.3;77.3
61880;BME280;47817;52.798;27.544;2023-02-16T18:11:55;1023.6;;;3.3;77.4
61880;BME280;47817;52.798;27.544;2023-02-16T18:16:31;1023.6;;;3.2;78
61880;BME280;47817;52.798;27.544;2023-02-16T18:21:58;1023.6;;;3.2;78.2
61880;BME280;47817;52.798;27.544;2023-02-16T18:26:43;1023.6;;;3.2;78.2
61880;BME280;47817;52.798;27.544;2023-02-16T18:31:31;1023.6;;;3.2;78.7
61880;BME280;47817;52.798;27.544;2023-02-16T18:36:09;1023.6;;;3.2;78.8
61880;BME280;47817;52.798;27.544;2023-02-16T18:41:29;1023.5;;;3.3;79.1
61880;BME280;47817;52.798;27.544;2023-02-16T18:46:33;1023.5;;;3.3;78.5
61880;BME280;47817;52.798;27.544;2023-02-16T18:51:10;1023.4;;;3.3;78.4
61880;BME280;47817;52.798;27.544;2023-02-16T18:56:33;1023.4;;;3.3;78.5
61880;BME280;47817;52.798;27.544;2023-02-16T19:01:56;1023.4;;;3.3;78.9
61880;BME280;47817;52.798;27.544;2023-02-16T19:06:21;1023.3;;;3.3;78.9
61880;BME280;47817;52.798;27.544;2023-02-16T19:11:10;1023.2;;;3.3;79.2
61880;BME280;47817;52.798;27.544;2023-02-16T19:16:55;1023.2;;;3.3;79.5
61880;BME280;47817;52.798;27.544;2023-02-16T19:21:32;1023.2;;;3.4;79.4
61880;BME280;47817;52.798;27.544;2023-02-16T19:26:10;1023.2;;;3.4;79.5
61880;BME280;47817;52.798;27.544;2023-02-16T19:31:32;1023.1;;;3.4;79
61880;BME280;47817;52.798;27.544;2023-02-16T19:36:20;1023;;;3.4;79.2
61880;BME280;47817;52.798;27.544;2023-02-16T19:41:34;1023;;;3.4;79.5
61880;BME280;47817;52.798;27.544;2023-02-16T19:46:57;1023;;;3.4;79.5
61880;BME280;47817;52.798;27.544;2023-02-16T19:51:33;1023.1;;;3.3;80.1
61880;BME280;47817;52.798;27.544;2023-02-16T19:56:55;1023.1;;;3.4;79.9
61880;BME280;47817;52.798;27.544;2023-02-16T20:01:35;1023.1;;;3.4;79.7
61880;BME280;47817;52.798;27.544;2023-02-16T20:06:55;1023.2;;;3.4;79.9
61880;BME280;47817;52.798;27.544;2023-02-16T20:11:09;1023.2;;;3.4;80.2
61880;BME280;47817;52.798;27.544;2023-02-16T20:16:42;1023.2;;;3.3;80.1
61880;BME280;47817;52.798;27.544;2023-02-16T20:21:11;1023.3;;;3.2;80.5
61880;BME280;47817;52.798;27.544;2023-02-16T20:26:11;1023.2;;;3.2;80.7
61880;BME280;47817;52.798;27.544;2023-02-16T20:31:10;1023.2;;;3.2;81.1
61880;BME280;47817;52.798;27.544;2023-02-16T20:36:43;1023.2;;;3.1;81.3
61880;BME280;47817;52.798;27.544;2023-02-16T20:41:55;1023.1;;;3.2;80.7
61880;BME280;47817;52.798;27.544;2023-02-16T20:46:34;1023.1;;;3.1;81.1
61880;BME280;47817;52.798;27.544;2023-02-16T20:51:54;1023.1;;;3.1;81.7
61880;BME280;47817;52.798;27.544;2023-02-16T20:56:33;1023.1;;;3;82
61880;BME280;47817;52.798;27.544;2023-02-16T21:01:56;1023.1;;;3;82.1
61880;BME280;47817;52.798;27.544;2023-02-16T21:06:09;1023.2;;;2.9;82.6
61880;BME280;47817;52.798;27.544;2023-02-16T21:11:27;1023.2;;;2.8;82.8
61880;BME280;47817;52.798;27.544;2023-02-16T21:16:21;1023.2;;;2.8;83.2
61880;BME280;47817;52.798;27.544;2023-02-16T21:21:57;1023.2;;;2.7;84
61880;BME280;47817;52.798;27.544;2023-02-16T21:26:10;1023.3;;;2.6;84.6
61880;BME280;47817;52.798;27.544;2023-02-16T21:31:55;1023.3;;;2.5;84.4
61880;BME280;47817;52.798;27.544;2023-02-16T21:36:53;1023.2;;;2.4;84.6
61880;BME280;47817;52.798;27.544;2023-02-16T21:41:10;1023.3;;;2.4;85.2
61880;BME280;47817;52.798;27.544;2023-02-16T21:46:44;1023.3;;;2.4;85.2
61880;BME280;47817;52.798;27.544;2023-02-16T21:51:34;1023.2;;;2.4;85.1
61880;BME280;47817;52.798;27.544;2023-02-16T21:56:47;1023.2;;;2.3;85.2
61880;BME280;47817;52.798;27.544;2023-02-16T22:01:31;1023.3;;;2.4;85
61880;BME280;47817;52.798;27.544;2023-02-16T22:06:42;1023.3;;;2.5;85.1
61880;BME280;47817;52.798;27.544;2023-02-16T22:11:10;1023.2;;;2.4;84.9
61880;BME280;47817;52.798;27.544;2023-02-16T22:16:42;1023.2;;;2.4;84.9
61880;BME280;47817;52.798;27.544;2023-02-16T22:21:09;1023.3;;;2.4;85
61880;BME280;47817;52.798;27.544;2023-02-16T22:26:55;1023.2;;;2.4;84.7
61880;BME280;47817;52.798;27.544;2023-02-16T22:31:44;1023.2;;;2.4;84.5
61880;BME280;47817;52.798;27.544;2023-02-16T22:36:45;1023.2;;;2.4;84.2
61880;BME280;47817;52.798;27.544;2023-02-16T22:41:57;1023.2;;;2.4;83.6
61880;BME280;47817;52.798;27.544;2023-02-16T22:46:11;1023.2;;;2.4;83.1
61880;BME280;47817;52.798;27.544;2023-02-16T22:51:45;1023.3;;;2.4;82.9
61880;BME280;47817;52.798;27.544;2023-02-16T22:56:12;1023.3;;;2.4;82.5
61880;BME280;47817;52.798;27.544;2023-02-16T23:01:45;1023.3;;;2.4;82.1
61880;BME280;47817;52.798;27.544;2023-02-16T23:06:22;1023.3;;;2.4;81.6
61880;BME280;47817;52.798;27.544;2023-02-16T23:11:53;1023.3;;;2.3;81.3
61880;BME280;47817;52.798;27.544;2023-02-16T23:16:22;1023.3;;;2.2;81.1
61880;BME280;47817;52.798;27.544;2023-02-16T23:21:46;1023.3;;;2.2;81.1
61880;BME280;47817;52.798;27.544;2023-02-16T23:26:44;1023.3;;;2.1;81.1
61880;BME280;47817;52.798;27.544;2023-02-16T23:31:55;1023.3;;;2.2;80.8
61880;BME280;47817;52.798;27.544;2023-02-16T23:36:34;1023.3;;;2.2;80.7
61880;BME280;47817;52.798;27.544;2023-02-16T23:41:32;1023.3;;;2.1;80.5
61880;BME280;47817;52.798;27.544;2023-02-16T23:46:55;1023.3;;;2.1;80.7
61880;BME280;47817;52.798;27.544;2023-02-16T23:51:41;1023.3;;;2.1;80.8
61880;BME280;47817;52.798;27.544;2023-02-16T23:56:43;1023.3;;;2;81.3
